<?xml version='1.0' encoding='UTF-8'?><gpx version="1.1" creator="JPX - https://github.com/jenetics/jpx" xmlns="http://www.topografix.com/GPX/1/1"><trk><trkseg><trkpt lat="44.79500038402543" lon="8.469015557488403"><ele>200.00000000000003</ele><time>2026-04-25T11:05:18.999Z</time></trkpt><trkpt lat="44.79500408920954" lon="8.468925037283228"><ele>200.0</ele><time>2026-04-25T11:05:20.999Z</time></trkpt><trkpt lat="44.79499103176135" lon="8.468835772065841"><ele>200.0</ele><time>2026-04-25T11:05:22.999Z</time></trkpt><trkpt lat="44.79496675111264" lon="8.468733370132806"><ele>200.0</ele><time>2026-04-25T11:05:24.999Z</time></trkpt><trkpt lat="44.79496638111476" lon="8.468631411766955"><ele>200.0</ele><time>2026-04-25T11:05:26.999Z</time></trkpt><trkpt lat="44.794938150445496" lon="8.46851958050502"><ele>200.00000000000003</ele><time>2026-04-25T11:05:29.999Z</time></trkpt><trkpt lat="44.79492506313228" lon="8.468397981002463"><ele>200.0</ele><time>2026-04-25T11:05:32.999Z</time></trkpt><trkpt lat="44.79490633199347" lon="8.468272054439266"><ele>200.00000000000003</ele><time>2026-04-25T11:05:35.999Z</time></trkpt><trkpt lat="44.794872880221604" lon="8.46818383169483"><ele>200.0</ele><time>2026-04-25T11:05:37.999Z</time></trkpt><trkpt lat="44.794868677938105" lon="8.468047094101308"><ele>200.0</ele><time>2026-04-25T11:05:40.999Z</time></trkpt><trkpt lat="44.79486164762513" lon="8.46795272810915"><ele>200.0</ele><time>2026-04-25T11:05:42.999Z</time></trkpt><trkpt lat="44.79485865950332" lon="8.467817560787605"><ele>200.00000000000003</ele><time>2026-04-25T11:05:45.999Z</time></trkpt><trkpt lat="44.79483381162125" lon="8.467718734509242"><ele>200.0</ele><time>2026-04-25T11:05:47.999Z</time></trkpt><trkpt lat="44.79481638948654" lon="8.467584838564731"><ele>200.00000000000003</ele><time>2026-04-25T11:05:50.999Z</time></trkpt><trkpt lat="44.794799128851395" lon="8.467491172204149"><ele>200.0</ele><time>2026-04-25T11:05:52.999Z</time></trkpt><trkpt lat="44.794794491082506" lon="8.467400723345271"><ele>200.0</ele><time>2026-04-25T11:05:54.999Z</time></trkpt><trkpt lat="44.79476893710091" lon="8.467274473989255"><ele>200.0</ele><time>2026-04-25T11:05:57.999Z</time></trkpt><trkpt lat="44.79476840893669" lon="8.467180089689576"><ele>200.0</ele><time>2026-04-25T11:05:59.999Z</time></trkpt><trkpt lat="44.79475230376363" lon="8.467087389747363"><ele>200.00000000000003</ele><time>2026-04-25T11:06:01.999Z</time></trkpt><trkpt lat="44.794744146252626" lon="8.466981318488934"><ele>200.0</ele><time>2026-04-25T11:06:03.999Z</time></trkpt><trkpt lat="44.79473100663901" lon="8.466844293611876"><ele>200.00000000000003</ele><time>2026-04-25T11:06:06.999Z</time></trkpt><trkpt lat="44.79472646584319" lon="8.466726095042356"><ele>200.0</ele><time>2026-04-25T11:06:09.999Z</time></trkpt><trkpt lat="44.79472164462529" lon="8.46660357826154"><ele>200.0</ele><time>2026-04-25T11:06:12.999Z</time></trkpt><trkpt lat="44.79471151367557" lon="8.466512253195772"><ele>200.0</ele><time>2026-04-25T11:06:14.999Z</time></trkpt><trkpt lat="44.79470607613005" lon="8.466416694939067"><ele>200.0</ele><time>2026-04-25T11:06:16.999Z</time></trkpt><trkpt lat="44.794698043292456" lon="8.466324650982763"><ele>200.00000000000003</ele><time>2026-04-25T11:06:18.999Z</time></trkpt><trkpt lat="44.79467704208582" lon="8.466240048893686"><ele>200.0</ele><time>2026-04-25T11:06:20.999Z</time></trkpt><trkpt lat="44.7946590931598" lon="8.466138655822308"><ele>199.83333333333334</ele><time>2026-04-25T11:06:22.999Z</time></trkpt><trkpt lat="44.79463346977761" lon="8.466053202307457"><ele>199.66666666666669</ele><time>2026-04-25T11:06:24.999Z</time></trkpt><trkpt lat="44.79459327005333" lon="8.46597532807283"><ele>199.5</ele><time>2026-04-25T11:06:26.999Z</time></trkpt><trkpt lat="44.79455960010613" lon="8.465875121766418"><ele>199.33333333333331</ele><time>2026-04-25T11:06:29.999Z</time></trkpt><trkpt lat="44.79451925747418" lon="8.46580625786462"><ele>199.16666666666666</ele><time>2026-04-25T11:06:31.999Z</time></trkpt><trkpt lat="44.79446866772296" lon="8.465707062806997"><ele>199.0</ele><time>2026-04-25T11:06:34.999Z</time></trkpt><trkpt lat="44.7944202939532" lon="8.465589327784912"><ele>198.99999999999997</ele><time>2026-04-25T11:06:37.999Z</time></trkpt><trkpt lat="44.79435898648285" lon="8.465497815161756"><ele>199.0</ele><time>2026-04-25T11:06:40.999Z</time></trkpt><trkpt lat="44.79430975341576" lon="8.465440808275737"><ele>199.0</ele><time>2026-04-25T11:06:42.999Z</time></trkpt><trkpt lat="44.794251553185696" lon="8.465359631357966"><ele>199.0</ele><time>2026-04-25T11:06:45.999Z</time></trkpt><trkpt lat="44.79420302280158" lon="8.465294341463656"><ele>198.99999999999997</ele><time>2026-04-25T11:06:47.999Z</time></trkpt><trkpt lat="44.794146642658966" lon="8.465233513557594"><ele>199.0</ele><time>2026-04-25T11:06:50.999Z</time></trkpt><trkpt lat="44.79409256918475" lon="8.46515608214957"><ele>199.28571428571428</ele><time>2026-04-25T11:06:53.999Z</time></trkpt><trkpt lat="44.794027872826774" lon="8.465086701535078"><ele>199.57142857142856</ele><time>2026-04-25T11:06:56.999Z</time></trkpt><trkpt lat="44.79396705996063" lon="8.465019288025411"><ele>199.85714285714283</ele><time>2026-04-25T11:06:59.999Z</time></trkpt><trkpt lat="44.793910649612044" lon="8.464946858663188"><ele>200.14285714285714</ele><time>2026-04-25T11:07:02.999Z</time></trkpt><trkpt lat="44.793859356275256" lon="8.464871864908059"><ele>200.42857142857144</ele><time>2026-04-25T11:07:06.999Z</time></trkpt><trkpt lat="44.79381355590279" lon="8.464801303312523"><ele>200.7142857142857</ele><time>2026-04-25T11:07:10.999Z</time></trkpt><trkpt lat="44.7937686843852" lon="8.464735992767185"><ele>201.0</ele><time>2026-04-25T11:07:14.999Z</time></trkpt><trkpt lat="44.79372722955763" lon="8.464664555965289"><ele>201.28571428571428</ele><time>2026-04-25T11:07:18.999Z</time></trkpt><trkpt lat="44.793685253445005" lon="8.464571112684824"><ele>201.57142857142858</ele><time>2026-04-25T11:07:23.999Z</time></trkpt><trkpt lat="44.793649775417066" lon="8.46448969576349"><ele>201.85714285714286</ele><time>2026-04-25T11:07:27.999Z</time></trkpt><trkpt lat="44.79361709355874" lon="8.464387041809891"><ele>202.14285714285714</ele><time>2026-04-25T11:07:32.999Z</time></trkpt><trkpt lat="44.793599431093604" lon="8.464299446271564"><ele>202.42857142857144</ele><time>2026-04-25T11:07:36.999Z</time></trkpt><trkpt lat="44.79357610960097" lon="8.464193313873112"><ele>202.71428571428572</ele><time>2026-04-25T11:07:41.999Z</time></trkpt><trkpt lat="44.79356181865787" lon="8.464100947721965"><ele>203.0</ele><time>2026-04-25T11:07:45.999Z</time></trkpt><trkpt lat="44.793546114414696" lon="8.46401350226983"><ele>203.0</ele><time>2026-04-25T11:07:49.999Z</time></trkpt><trkpt lat="44.79352586871931" lon="8.463905933205263"><ele>203.0</ele><time>2026-04-25T11:07:56.999Z</time></trkpt><trkpt lat="44.793532791418556" lon="8.463810926602765"><ele>203.0</ele><time>2026-04-25T11:08:00.999Z</time></trkpt><trkpt lat="44.793513244755836" lon="8.463716500149177"><ele>203.0</ele><time>2026-04-25T11:08:04.999Z</time></trkpt><trkpt lat="44.79348765262806" lon="8.46362453034273"><ele>203.0</ele><time>2026-04-25T11:08:09.999Z</time></trkpt><trkpt lat="44.79344838438162" lon="8.463551394394475"><ele>203.0</ele><time>2026-04-25T11:08:13.999Z</time></trkpt><trkpt lat="44.79341514687509" lon="8.463451867531813"><ele>203.0</ele><time>2026-04-25T11:08:18.999Z</time></trkpt><trkpt lat="44.79337833496031" lon="8.463372440389442"><ele>203.0</ele><time>2026-04-25T11:08:22.999Z</time></trkpt><trkpt lat="44.793326973528444" lon="8.463302822030348"><ele>203.0</ele><time>2026-04-25T11:08:27.999Z</time></trkpt><trkpt lat="44.793278354856355" lon="8.4632344862622"><ele>203.0</ele><time>2026-04-25T11:08:31.999Z</time></trkpt><trkpt lat="44.79322467236084" lon="8.46315172305446"><ele>203.0</ele><time>2026-04-25T11:08:35.999Z</time></trkpt><trkpt lat="44.79317161503918" lon="8.46309397684521"><ele>203.0</ele><time>2026-04-25T11:08:39.999Z</time></trkpt><trkpt lat="44.793122464131685" lon="8.463038080193868"><ele>203.0</ele><time>2026-04-25T11:08:43.999Z</time></trkpt><trkpt lat="44.79307310130297" lon="8.462962216561607"><ele>203.0</ele><time>2026-04-25T11:08:48.999Z</time></trkpt><trkpt lat="44.79302644964496" lon="8.462887906259889"><ele>203.14285714285714</ele><time>2026-04-25T11:08:53.999Z</time></trkpt><trkpt lat="44.79297971682408" lon="8.462804553985421"><ele>203.28571428571428</ele><time>2026-04-25T11:08:58.999Z</time></trkpt><trkpt lat="44.7929467542113" lon="8.462711247097761"><ele>203.42857142857144</ele><time>2026-04-25T11:09:03.999Z</time></trkpt><trkpt lat="44.79290425715943" lon="8.462623228279634"><ele>203.57142857142856</ele><time>2026-04-25T11:09:08.999Z</time></trkpt><trkpt lat="44.792888658289144" lon="8.462516747918036"><ele>203.71428571428572</ele><time>2026-04-25T11:09:13.999Z</time></trkpt><trkpt lat="44.79285799339881" lon="8.462421517144062"><ele>203.85714285714286</ele><time>2026-04-25T11:09:18.999Z</time></trkpt><trkpt lat="44.792856119736285" lon="8.462329545392794"><ele>204.0</ele><time>2026-04-25T11:09:22.999Z</time></trkpt><trkpt lat="44.79284989413063" lon="8.46222013184129"><ele>204.33333333333334</ele><time>2026-04-25T11:09:27.999Z</time></trkpt><trkpt lat="44.79285454235517" lon="8.462095904611576"><ele>204.66666666666669</ele><time>2026-04-25T11:09:32.999Z</time></trkpt><trkpt lat="44.792863762619504" lon="8.461974657062703"><ele>205.0</ele><time>2026-04-25T11:09:35.999Z</time></trkpt><trkpt lat="44.79286568435518" lon="8.461853364157287"><ele>205.33333333333334</ele><time>2026-04-25T11:09:38.999Z</time></trkpt><trkpt lat="44.79285847789777" lon="8.461756411883302"><ele>205.66666666666669</ele><time>2026-04-25T11:09:41.999Z</time></trkpt><trkpt lat="44.79285561552658" lon="8.461639490313132"><ele>206.0</ele><time>2026-04-25T11:09:44.999Z</time></trkpt><trkpt lat="44.79284146365892" lon="8.461517690335171"><ele>206.00000000000003</ele><time>2026-04-25T11:09:47.999Z</time></trkpt><trkpt lat="44.79283506037963" lon="8.461427207477307"><ele>206.0</ele><time>2026-04-25T11:09:49.999Z</time></trkpt><trkpt lat="44.792818406842414" lon="8.461304131894465"><ele>206.0</ele><time>2026-04-25T11:09:52.999Z</time></trkpt><trkpt lat="44.79278598852725" lon="8.461182580599514"><ele>206.0</ele><time>2026-04-25T11:09:55.999Z</time></trkpt><trkpt lat="44.79275855612599" lon="8.461066850783592"><ele>206.00000000000003</ele><time>2026-04-25T11:09:58.999Z</time></trkpt><trkpt lat="44.79273584339488" lon="8.46094470094149"><ele>206.0</ele><time>2026-04-25T11:10:01.999Z</time></trkpt><trkpt lat="44.79269746443719" lon="8.460838456003872"><ele>206.33333333333334</ele><time>2026-04-25T11:10:04.999Z</time></trkpt><trkpt lat="44.79266250769631" lon="8.460758830988425"><ele>206.66666666666669</ele><time>2026-04-25T11:10:07.999Z</time></trkpt><trkpt lat="44.79262828297229" lon="8.460647269382736"><ele>207.0</ele><time>2026-04-25T11:10:10.999Z</time></trkpt><trkpt lat="44.79258279137964" lon="8.460545101149773"><ele>207.33333333333331</ele><time>2026-04-25T11:10:13.999Z</time></trkpt><trkpt lat="44.79254386536796" lon="8.460443573836796"><ele>207.66666666666666</ele><time>2026-04-25T11:10:16.999Z</time></trkpt><trkpt lat="44.79249939185807" lon="8.46034112186258"><ele>208.0</ele><time>2026-04-25T11:10:19.999Z</time></trkpt><trkpt lat="44.79244491919144" lon="8.460230075734765"><ele>208.28571428571428</ele><time>2026-04-25T11:10:22.999Z</time></trkpt><trkpt lat="44.79240019653251" lon="8.460126713704193"><ele>208.57142857142858</ele><time>2026-04-25T11:10:25.999Z</time></trkpt><trkpt lat="44.79235522214631" lon="8.460041290896012"><ele>208.85714285714286</ele><time>2026-04-25T11:10:27.999Z</time></trkpt><trkpt lat="44.79232040513066" lon="8.459960079958126"><ele>209.14285714285714</ele><time>2026-04-25T11:10:29.999Z</time></trkpt><trkpt lat="44.792283580102854" lon="8.459860093677781"><ele>209.42857142857144</ele><time>2026-04-25T11:10:32.999Z</time></trkpt><trkpt lat="44.79225759123539" lon="8.459767321348803"><ele>209.71428571428572</ele><time>2026-04-25T11:10:36.999Z</time></trkpt><trkpt lat="44.79223016452792" lon="8.459680511202436"><ele>210.0</ele><time>2026-04-25T11:10:41.999Z</time></trkpt><trkpt lat="44.79220337455182" lon="8.459581874229494"><ele>210.33333333333334</ele><time>2026-04-25T11:10:46.999Z</time></trkpt><trkpt lat="44.79219454773466" lon="8.459476212099851"><ele>210.66666666666669</ele><time>2026-04-25T11:10:51.999Z</time></trkpt><trkpt lat="44.79218191061841" lon="8.459382370837634"><ele>211.0</ele><time>2026-04-25T11:10:56.999Z</time></trkpt><trkpt lat="44.79217495180722" lon="8.45927899196839"><ele>211.33333333333334</ele><time>2026-04-25T11:11:02.999Z</time></trkpt><trkpt lat="44.792116309237116" lon="8.459229465569248"><ele>211.66666666666669</ele><time>2026-04-25T11:11:08.999Z</time></trkpt><trkpt lat="44.79218603094478" lon="8.45917818455577"><ele>212.0</ele><time>2026-04-25T11:11:23.999Z</time></trkpt><trkpt lat="44.79220493834504" lon="8.459311143397418"><ele>212.0</ele><time>2026-04-25T11:11:28.999Z</time></trkpt><trkpt lat="44.79218152290857" lon="8.459415750211997"><ele>212.0</ele><time>2026-04-25T11:11:30.999Z</time></trkpt><trkpt lat="44.7921994292094" lon="8.459525293473376"><ele>212.0</ele><time>2026-04-25T11:11:32.999Z</time></trkpt><trkpt lat="44.792219744780596" lon="8.459647967836672"><ele>212.0</ele><time>2026-04-25T11:11:34.999Z</time></trkpt><trkpt lat="44.79224840719491" lon="8.459784414143556"><ele>212.0</ele><time>2026-04-25T11:11:36.999Z</time></trkpt><trkpt lat="44.79229606783167" lon="8.459917987564904"><ele>211.6</ele><time>2026-04-25T11:11:38.999Z</time></trkpt><trkpt lat="44.79234881114895" lon="8.46003595365806"><ele>211.2</ele><time>2026-04-25T11:11:40.999Z</time></trkpt><trkpt lat="44.79239538751942" lon="8.460153183729364"><ele>210.8</ele><time>2026-04-25T11:11:42.999Z</time></trkpt><trkpt lat="44.79244736467836" lon="8.46025254936014"><ele>210.4</ele><time>2026-04-25T11:11:44.999Z</time></trkpt><trkpt lat="44.79250448385713" lon="8.46036959597781"><ele>210.0</ele><time>2026-04-25T11:11:46.999Z</time></trkpt><trkpt lat="44.79254350738676" lon="8.460481690463123"><ele>209.6</ele><time>2026-04-25T11:11:48.999Z</time></trkpt><trkpt lat="44.79258205984972" lon="8.460593102084879"><ele>209.2</ele><time>2026-04-25T11:11:50.999Z</time></trkpt><trkpt lat="44.79262741985962" lon="8.460700223329976"><ele>208.8</ele><time>2026-04-25T11:11:52.999Z</time></trkpt><trkpt lat="44.79266848024277" lon="8.460813265053316"><ele>208.4</ele><time>2026-04-25T11:11:54.999Z</time></trkpt><trkpt lat="44.792713488209145" lon="8.460926307526668"><ele>208.0</ele><time>2026-04-25T11:11:56.999Z</time></trkpt><trkpt lat="44.792756232218885" lon="8.461047112385224"><ele>208.0</ele><time>2026-04-25T11:11:58.999Z</time></trkpt><trkpt lat="44.7927865323111" lon="8.46118007819744"><ele>208.0</ele><time>2026-04-25T11:12:00.999Z</time></trkpt><trkpt lat="44.792810563508006" lon="8.4613339032725"><ele>208.0</ele><time>2026-04-25T11:12:02.999Z</time></trkpt><trkpt lat="44.79282975363901" lon="8.461490281618335"><ele>208.0</ele><time>2026-04-25T11:12:04.999Z</time></trkpt><trkpt lat="44.79284309248901" lon="8.461636225697402"><ele>208.0</ele><time>2026-04-25T11:12:06.999Z</time></trkpt><trkpt lat="44.792856850262694" lon="8.461760203402882"><ele>207.66666666666666</ele><time>2026-04-25T11:12:08.999Z</time></trkpt><trkpt lat="44.792866300856154" lon="8.461884821731694"><ele>207.33333333333331</ele><time>2026-04-25T11:12:10.999Z</time></trkpt><trkpt lat="44.7928672799431" lon="8.462016533495733"><ele>207.0</ele><time>2026-04-25T11:12:12.999Z</time></trkpt><trkpt lat="44.79285866940721" lon="8.462152071433879"><ele>206.66666666666669</ele><time>2026-04-25T11:12:14.999Z</time></trkpt><trkpt lat="44.792850189798564" lon="8.462267767040231"><ele>206.33333333333334</ele><time>2026-04-25T11:12:16.999Z</time></trkpt><trkpt lat="44.79285389180424" lon="8.462368906229832"><ele>206.0</ele><time>2026-04-25T11:12:18.999Z</time></trkpt><trkpt lat="44.792865415091505" lon="8.462495424793818"><ele>205.60000000000002</ele><time>2026-04-25T11:12:21.999Z</time></trkpt><trkpt lat="44.7928877426517" lon="8.462612173447283"><ele>205.2</ele><time>2026-04-25T11:12:24.999Z</time></trkpt><trkpt lat="44.79293052354181" lon="8.462726533059879"><ele>204.8</ele><time>2026-04-25T11:12:27.999Z</time></trkpt><trkpt lat="44.79298056037253" lon="8.462835809152443"><ele>204.39999999999998</ele><time>2026-04-25T11:12:30.999Z</time></trkpt><trkpt lat="44.79304157881465" lon="8.4629349907879"><ele>204.0</ele><time>2026-04-25T11:12:33.999Z</time></trkpt><trkpt lat="44.79310156191286" lon="8.463033431809178"><ele>203.83333333333334</ele><time>2026-04-25T11:12:36.999Z</time></trkpt><trkpt lat="44.793160334017664" lon="8.46312577696986"><ele>203.66666666666669</ele><time>2026-04-25T11:12:39.999Z</time></trkpt><trkpt lat="44.79322731815112" lon="8.463212366208554"><ele>203.5</ele><time>2026-04-25T11:12:42.999Z</time></trkpt><trkpt lat="44.793287213803204" lon="8.463293078157632"><ele>203.33333333333334</ele><time>2026-04-25T11:12:45.999Z</time></trkpt><trkpt lat="44.793339902691976" lon="8.46336924708637"><ele>203.16666666666669</ele><time>2026-04-25T11:12:50.999Z</time></trkpt><trkpt lat="44.79338978683828" lon="8.463460546735615"><ele>203.0</ele><time>2026-04-25T11:12:54.999Z</time></trkpt><trkpt lat="44.793419749336714" lon="8.463542844357942"><ele>203.0</ele><time>2026-04-25T11:12:57.999Z</time></trkpt><trkpt lat="44.79346173578405" lon="8.463661699628659"><ele>203.0</ele><time>2026-04-25T11:13:00.999Z</time></trkpt><trkpt lat="44.79348521584104" lon="8.46374863533161"><ele>203.0</ele><time>2026-04-25T11:13:02.999Z</time></trkpt><trkpt lat="44.79350997403673" lon="8.463842124903968"><ele>203.0</ele><time>2026-04-25T11:13:04.999Z</time></trkpt><trkpt lat="44.793532719503375" lon="8.463940310873284"><ele>203.0</ele><time>2026-04-25T11:13:06.999Z</time></trkpt><trkpt lat="44.793550947754554" lon="8.4640367732984"><ele>203.0</ele><time>2026-04-25T11:13:08.999Z</time></trkpt><trkpt lat="44.79356189999308" lon="8.464132355915316"><ele>203.0</ele><time>2026-04-25T11:13:10.999Z</time></trkpt><trkpt lat="44.793597661870734" lon="8.464231638280133"><ele>203.00000000000003</ele><time>2026-04-25T11:13:12.999Z</time></trkpt><trkpt lat="44.79362226369589" lon="8.464351376170027"><ele>203.0</ele><time>2026-04-25T11:13:14.999Z</time></trkpt><trkpt lat="44.793652403850444" lon="8.464450961999766"><ele>203.0</ele><time>2026-04-25T11:13:16.999Z</time></trkpt><trkpt lat="44.79369669362275" lon="8.464557679295615"><ele>203.0</ele><time>2026-04-25T11:13:19.999Z</time></trkpt><trkpt lat="44.79374262247862" lon="8.464663422549226"><ele>203.00000000000003</ele><time>2026-04-25T11:13:22.999Z</time></trkpt><trkpt lat="44.79379876299358" lon="8.46476347646296"><ele>203.0</ele><time>2026-04-25T11:13:25.999Z</time></trkpt><trkpt lat="44.79384029779225" lon="8.464836557710944"><ele>202.60000000000002</ele><time>2026-04-25T11:13:27.999Z</time></trkpt><trkpt lat="44.79388952082715" lon="8.464910309188564"><ele>202.20000000000002</ele><time>2026-04-25T11:13:29.999Z</time></trkpt><trkpt lat="44.793941219414044" lon="8.464983536968152"><ele>201.8</ele><time>2026-04-25T11:13:31.999Z</time></trkpt><trkpt lat="44.79401837150427" lon="8.465073149043022"><ele>201.4</ele><time>2026-04-25T11:13:33.999Z</time></trkpt><trkpt lat="44.794100843739784" lon="8.46517257661844"><ele>201.0</ele><time>2026-04-25T11:13:35.999Z</time></trkpt><trkpt lat="44.79418926959522" lon="8.465281570157932"><ele>201.0</ele><time>2026-04-25T11:13:37.999Z</time></trkpt><trkpt lat="44.79427823729553" lon="8.465396785922778"><ele>201.0</ele><time>2026-04-25T11:13:39.999Z</time></trkpt><trkpt lat="44.79436274206552" lon="8.465525018786503"><ele>201.0</ele><time>2026-04-25T11:13:41.999Z</time></trkpt><trkpt lat="44.79443768519285" lon="8.46566427092412"><ele>201.0</ele><time>2026-04-25T11:13:43.999Z</time></trkpt><trkpt lat="44.79450787052703" lon="8.465814233692715"><ele>200.85714285714286</ele><time>2026-04-25T11:13:45.999Z</time></trkpt><trkpt lat="44.79454139487665" lon="8.465895636482369"><ele>200.71428571428572</ele><time>2026-04-25T11:13:46.999Z</time></trkpt><trkpt lat="44.794577311606645" lon="8.465977654646355"><ele>200.57142857142858</ele><time>2026-04-25T11:13:47.999Z</time></trkpt><trkpt lat="44.794607673022526" lon="8.466059716859073"><ele>200.42857142857144</ele><time>2026-04-25T11:13:48.999Z</time></trkpt><trkpt lat="44.79463394891077" lon="8.466146693174915"><ele>200.28571428571428</ele><time>2026-04-25T11:13:49.999Z</time></trkpt><trkpt lat="44.7946551960049" lon="8.466236827268212"><ele>200.14285714285717</ele><time>2026-04-25T11:13:50.999Z</time></trkpt><trkpt lat="44.794676467124546" lon="8.466335652368429"><ele>200.0</ele><time>2026-04-25T11:13:51.999Z</time></trkpt><trkpt lat="44.794677846955366" lon="8.466430785127356"><ele>200.00000000000003</ele><time>2026-04-25T11:13:52.999Z</time></trkpt><trkpt lat="44.794683217963126" lon="8.466528983895268"><ele>200.0</ele><time>2026-04-25T11:13:53.999Z</time></trkpt><trkpt lat="44.794686915526405" lon="8.466633797545365"><ele>200.0</ele><time>2026-04-25T11:13:54.999Z</time></trkpt><trkpt lat="44.79469344443271" lon="8.466738863410566"><ele>200.0</ele><time>2026-04-25T11:13:55.999Z</time></trkpt><trkpt lat="44.79469875933986" lon="8.466849432722926"><ele>200.00000000000003</ele><time>2026-04-25T11:13:56.999Z</time></trkpt><trkpt lat="44.79470700763644" lon="8.466961064678554"><ele>200.0</ele><time>2026-04-25T11:13:57.999Z</time></trkpt><trkpt lat="44.79471831037371" lon="8.46707599010528"><ele>199.83333333333334</ele><time>2026-04-25T11:13:58.999Z</time></trkpt><trkpt lat="44.79473011258651" lon="8.46719025840976"><ele>199.66666666666669</ele><time>2026-04-25T11:13:59.999Z</time></trkpt><trkpt lat="44.794731081531964" lon="8.467302926774545"><ele>199.5</ele><time>2026-04-25T11:14:00.999Z</time></trkpt><trkpt lat="44.794748854285004" lon="8.46741076349924"><ele>199.33333333333331</ele><time>2026-04-25T11:14:01.999Z</time></trkpt><trkpt lat="44.79476756493262" lon="8.467519528685305"><ele>199.16666666666666</ele><time>2026-04-25T11:14:02.999Z</time></trkpt><trkpt lat="44.79478436677314" lon="8.46760981590123"><ele>199.0</ele><time>2026-04-25T11:14:03.999Z</time></trkpt><trkpt lat="44.79482154178988" lon="8.46778300828506"><ele>198.99999999999997</ele><time>2026-04-25T11:14:05.999Z</time></trkpt><trkpt lat="44.794829122630816" lon="8.46788618257038"><ele>199.0</ele><time>2026-04-25T11:14:06.999Z</time></trkpt><trkpt lat="44.79483782049133" lon="8.467988186216543"><ele>199.0</ele><time>2026-04-25T11:14:07.999Z</time></trkpt><trkpt lat="44.7948470449796" lon="8.46809220907705"><ele>199.0</ele><time>2026-04-25T11:14:08.999Z</time></trkpt><trkpt lat="44.79485972342315" lon="8.468189518049162"><ele>198.99999999999997</ele><time>2026-04-25T11:14:09.999Z</time></trkpt><trkpt lat="44.79487891204883" lon="8.468286526564"><ele>199.0</ele><time>2026-04-25T11:14:10.999Z</time></trkpt><trkpt lat="44.794907409930296" lon="8.468458906977347"><ele>199.16666666666666</ele><time>2026-04-25T11:14:12.999Z</time></trkpt><trkpt lat="44.79491970214034" lon="8.468547903810203"><ele>199.33333333333331</ele><time>2026-04-25T11:14:13.999Z</time></trkpt><trkpt lat="44.7949354369704" lon="8.468638537303393"><ele>199.5</ele><time>2026-04-25T11:14:14.999Z</time></trkpt><trkpt lat="44.794948889680754" lon="8.468727936211902"><ele>199.66666666666669</ele><time>2026-04-25T11:14:15.999Z</time></trkpt><trkpt lat="44.79498274243194" lon="8.468913081304363"><ele>199.83333333333334</ele><time>2026-04-25T11:14:18.999Z</time></trkpt><trkpt lat="44.79500330257602" lon="8.46903702144499"><ele>200.0</ele><time>2026-04-25T11:14:21.999Z</time></trkpt><trkpt lat="44.795017301350775" lon="8.469127812960124"><ele>200.0</ele><time>2026-04-25T11:14:24.999Z</time></trkpt></trkseg><trkseg><trkpt lat="44.795132538766374" lon="8.473491991597522"><ele>193.00000000000003</ele><time>2026-04-25T11:19:47.999Z</time></trkpt><trkpt lat="44.79514514271211" lon="8.473579412900541"><ele>193.0</ele><time>2026-04-25T11:19:51.999Z</time></trkpt><trkpt lat="44.79513635773683" lon="8.473698057511971"><ele>193.0</ele><time>2026-04-25T11:19:58.999Z</time></trkpt><trkpt lat="44.79509211461105" lon="8.473766747406081"><ele>193.0</ele><time>2026-04-25T11:20:03.999Z</time></trkpt><trkpt lat="44.79505204111384" lon="8.47385038890485"><ele>193.0</ele><time>2026-04-25T11:20:16Z</time></trkpt><trkpt lat="44.795031476637696" lon="8.473937637421825"><ele>193.00000000000003</ele><time>2026-04-25T11:20:24Z</time></trkpt><trkpt lat="44.79502677873102" lon="8.474031860714012"><ele>193.0</ele><time>2026-04-25T11:20:36Z</time></trkpt><trkpt lat="44.795010318289954" lon="8.474126419490041"><ele>193.14285714285717</ele><time>2026-04-25T11:20:44Z</time></trkpt><trkpt lat="44.794999053444755" lon="8.474222340518999"><ele>193.28571428571428</ele><time>2026-04-25T11:20:51.999Z</time></trkpt><trkpt lat="44.794992713237725" lon="8.47432156829422"><ele>193.42857142857144</ele><time>2026-04-25T11:20:57.999Z</time></trkpt><trkpt lat="44.79497871687774" lon="8.474412811938798"><ele>193.57142857142858</ele><time>2026-04-25T11:21:04.999Z</time></trkpt><trkpt lat="44.79497755634138" lon="8.474503223237132"><ele>193.71428571428572</ele><time>2026-04-25T11:21:10.999Z</time></trkpt><trkpt lat="44.79496937040456" lon="8.474605272674168"><ele>193.85714285714286</ele><time>2026-04-25T11:21:17.999Z</time></trkpt><trkpt lat="44.794960781935536" lon="8.474705762414073"><ele>194.0</ele><time>2026-04-25T11:21:24.999Z</time></trkpt><trkpt lat="44.7949629839803" lon="8.474794847544047"><ele>194.0</ele><time>2026-04-25T11:21:30.999Z</time></trkpt><trkpt lat="44.79495857211276" lon="8.474883345310982"><ele>194.0</ele><time>2026-04-25T11:21:40.999Z</time></trkpt><trkpt lat="44.79497091330961" lon="8.474978673951941"><ele>194.0</ele><time>2026-04-25T11:21:48.999Z</time></trkpt><trkpt lat="44.79496731366142" lon="8.475073743260644"><ele>194.0</ele><time>2026-04-25T11:21:59.999Z</time></trkpt><trkpt lat="44.79499621078605" lon="8.475174308371363"><ele>194.0</ele><time>2026-04-25T11:22:10Z</time></trkpt><trkpt lat="44.79500042470463" lon="8.475264417688118"><ele>194.0</ele><time>2026-04-25T11:22:16Z</time></trkpt><trkpt lat="44.79500937181443" lon="8.47535808270504"><ele>194.0</ele><time>2026-04-25T11:22:24Z</time></trkpt><trkpt lat="44.795025678191415" lon="8.475446230590146"><ele>193.14285714285714</ele><time>2026-04-25T11:22:34Z</time></trkpt><trkpt lat="44.79502452486908" lon="8.475543918885666"><ele>192.2857142857143</ele><time>2026-04-25T11:22:46Z</time></trkpt><trkpt lat="44.795026073071035" lon="8.475636922175724"><ele>191.42857142857144</ele><time>2026-04-25T11:22:55Z</time></trkpt><trkpt lat="44.79503123482768" lon="8.475730520914606"><ele>190.57142857142856</ele><time>2026-04-25T11:23:04Z</time></trkpt><trkpt lat="44.79504584598237" lon="8.475821602457454"><ele>189.71428571428572</ele><time>2026-04-25T11:24:35Z</time></trkpt><trkpt lat="44.795013867919835" lon="8.475919951961414"><ele>188.85714285714286</ele><time>2026-04-25T11:24:55Z</time></trkpt><trkpt lat="44.79501751271145" lon="8.476009006382634"><ele>188.0</ele><time>2026-04-25T11:25:28Z</time></trkpt><trkpt lat="44.79496501072213" lon="8.476064614224931"><ele>188.0</ele><time>2026-04-25T11:25:43Z</time></trkpt><trkpt lat="44.79489908859422" lon="8.476151389759062"><ele>188.0</ele><time>2026-04-25T11:26:05Z</time></trkpt><trkpt lat="44.7948415281552" lon="8.476189698332433"><ele>188.0</ele><time>2026-04-25T11:26:14Z</time></trkpt><trkpt lat="44.79479099545674" lon="8.476251337316887"><ele>188.0</ele><time>2026-04-25T11:26:24Z</time></trkpt><trkpt lat="44.794738817036475" lon="8.476320517566014"><ele>188.0</ele><time>2026-04-25T11:26:57Z</time></trkpt><trkpt lat="44.7946940355619" lon="8.476383913408643"><ele>188.0</ele><time>2026-04-25T11:27:19.001Z</time></trkpt><trkpt lat="44.794633744634865" lon="8.4763383594487"><ele>188.0</ele><time>2026-04-25T11:27:40Z</time></trkpt><trkpt lat="44.79457098312823" lon="8.47629911168541"><ele>187.16666666666666</ele><time>2026-04-25T11:27:59Z</time></trkpt><trkpt lat="44.79446013831073" lon="8.476302336840586"><ele>186.33333333333331</ele><time>2026-04-25T11:29:09.001Z</time></trkpt><trkpt lat="44.7943907854025" lon="8.476290288200431"><ele>185.5</ele><time>2026-04-25T11:29:44Z</time></trkpt><trkpt lat="44.79431027234949" lon="8.476221663470207"><ele>184.66666666666666</ele><time>2026-04-25T11:30:21Z</time></trkpt><trkpt lat="44.79424653856579" lon="8.476214136047624"><ele>183.83333333333334</ele><time>2026-04-25T11:30:34Z</time></trkpt><trkpt lat="44.794203691214406" lon="8.476284117657354"><ele>183.0</ele><time>2026-04-25T11:30:54Z</time></trkpt><trkpt lat="44.79414756930187" lon="8.476332230356673"><ele>182.71428571428572</ele><time>2026-04-25T11:31:29Z</time></trkpt><trkpt lat="44.7940807938937" lon="8.476305041510468"><ele>182.42857142857144</ele><time>2026-04-25T11:31:51Z</time></trkpt><trkpt lat="44.79403385213529" lon="8.476234962434711"><ele>182.14285714285714</ele><time>2026-04-25T11:32:13Z</time></trkpt><trkpt lat="44.794008297351525" lon="8.476150799713361"><ele>181.85714285714286</ele><time>2026-04-25T11:32:42Z</time></trkpt><trkpt lat="44.7939442980161" lon="8.47613362323705"><ele>181.57142857142856</ele><time>2026-04-25T11:32:58Z</time></trkpt><trkpt lat="44.79390031418849" lon="8.47606488808987"><ele>181.28571428571428</ele><time>2026-04-25T11:35:29.999Z</time></trkpt><trkpt lat="44.79389050425254" lon="8.47596054976817"><ele>181.0</ele><time>2026-04-25T11:37:36.999Z</time></trkpt><trkpt lat="44.793909409726254" lon="8.475874413830223"><ele>181.0</ele><time>2026-04-25T11:38:13.999Z</time></trkpt><trkpt lat="44.79393399828856" lon="8.475791717948082"><ele>181.0</ele><time>2026-04-25T11:38:32.999Z</time></trkpt><trkpt lat="44.793970627760544" lon="8.4757179926813"><ele>181.0</ele><time>2026-04-25T11:39:24.999Z</time></trkpt><trkpt lat="44.79402671632219" lon="8.475672392451052"><ele>181.0</ele><time>2026-04-25T11:39:37.999Z</time></trkpt><trkpt lat="44.79404920510598" lon="8.475523433660701"><ele>181.0</ele><time>2026-04-25T11:41:01Z</time></trkpt></trkseg></trk></gpx>